createdAt,value
2022-11-15T00:00:35.638Z,98333.95
2022-11-15T00:04:17.034Z,98327.04
2022-11-15T00:07:58.213Z,98327.07
2022-11-15T00:11:41.844Z,98327.69
2022-11-15T00:15:22.627Z,98322.99
2022-11-15T00:19:22.568Z,98313.37
2022-11-15T00:23:22.371Z,98314.38
2022-11-15T00:27:07.608Z,98317.88
2022-11-15T00:30:49.144Z,98314.07
2022-11-15T00:34:48.896Z,98314.18
2022-11-15T00:38:48.166Z,98311.41
2022-11-15T00:42:28.311Z,98307.56
2022-11-15T00:46:10.748Z,98302.04
2022-11-15T00:49:52.129Z,98300.55
2022-11-15T00:53:34.084Z,98299.45
2022-11-15T00:57:15.898Z,98296.56
2022-11-15T01:00:57.166Z,98290.53
2022-11-15T01:04:57.292Z,98286.75
2022-11-15T01:08:37.604Z,98279.11
2022-11-15T01:12:18.803Z,98277.88
2022-11-15T01:16:06.534Z,98271.38
2022-11-15T01:20:07.470Z,98269.63
2022-11-15T01:23:48.666Z,98271.90
2022-11-15T01:27:48.784Z,98263.33
2022-11-15T01:31:29.477Z,98259.38
2022-11-15T01:35:10.511Z,98251.88
2022-11-15T01:39:10.359Z,98247.85
2022-11-15T01:42:51.129Z,98245.62
2022-11-15T01:46:35.881Z,98246.58
2022-11-15T01:50:36.101Z,98237.82
2022-11-15T01:54:36.199Z,98236.16
2022-11-15T01:58:17.310Z,98229.34
2022-11-15T02:01:59.645Z,98223.18
2022-11-15T02:05:42.214Z,98219.31
2022-11-15T02:09:23.056Z,98215.06
2022-11-15T02:13:24.517Z,98207.60
2022-11-15T02:17:22.429Z,98201.81
2022-11-15T02:21:41.327Z,98198.49
2022-11-15T02:25:41.797Z,98200.92
2022-11-15T02:30:03.236Z,98195.71
2022-11-15T02:34:06.498Z,98193.68
2022-11-15T02:37:56.799Z,98189.15
2022-11-15T02:41:54.672Z,98188.36
2022-11-15T02:45:45.732Z,98180.73
2022-11-15T02:49:30.466Z,98174.55
2022-11-15T02:53:16.537Z,98167.20
2022-11-15T02:57:03.273Z,98166.95
2022-11-15T03:01:21.950Z,98160.95
2022-11-15T03:05:50.615Z,98156.60
2022-11-15T03:09:58.635Z,98148.70
2022-11-15T03:13:59.427Z,98147.42
2022-11-15T03:17:55.126Z,98145.41
2022-11-15T03:21:39.174Z,98143.34
2022-11-15T03:25:47.597Z,98136.93
2022-11-15T03:29:34.164Z,98135.19
2022-11-15T03:33:15.428Z,98128.17
2022-11-15T03:36:57.028Z,98121.36
2022-11-15T03:40:40.984Z,98113.98
2022-11-15T03:44:47.858Z,98108.92
2022-11-15T03:48:52.924Z,98097.79
2022-11-15T03:52:35.241Z,98094.28
2022-11-15T03:56:35.813Z,98092.42
2022-11-15T04:00:16.905Z,98087.22
2022-11-15T04:03:56.941Z,98080.95
2022-11-15T04:07:39.267Z,98078.88
2022-11-15T04:11:39.900Z,98076.67
2022-11-15T04:15:24.206Z,98073.22
2022-11-15T04:19:25.103Z,98068.17
2022-11-15T04:23:35.071Z,98072.77
2022-11-15T04:27:16.572Z,98076.92
2022-11-15T04:30:58.364Z,98072.68
2022-11-15T04:34:58.250Z,98071.11
2022-11-15T04:38:38.829Z,98072.29
2022-11-15T04:42:41.953Z,98065.45
2022-11-15T04:46:22.971Z,98060.03
2022-11-15T04:50:22.982Z,98057.94
2022-11-15T04:54:22.523Z,98056.73
2022-11-15T04:58:03.852Z,98057.06
2022-11-15T05:01:45.464Z,98052.37
2022-11-15T05:05:45.883Z,98048.54
2022-11-15T05:09:45.431Z,98047.06
2022-11-15T05:13:27.794Z,98049.63
2022-11-15T05:17:09.109Z,98045.67
2022-11-15T05:21:14.930Z,98039.20
2022-11-15T05:24:55.316Z,98035.63
2022-11-15T05:28:37.604Z,98033.99
2022-11-15T05:32:19.096Z,98031.77
2022-11-15T05:36:27.746Z,98030.48
2022-11-15T05:40:09.309Z,98030.55
2022-11-15T05:43:52.098Z,98033.52
2022-11-15T05:47:53.080Z,98030.55
2022-11-15T05:51:33.450Z,98030.95
2022-11-15T05:55:34.195Z,98035.15
2022-11-15T05:59:14.452Z,98029.84
2022-11-15T06:03:14.591Z,98028.43
2022-11-15T06:07:14.423Z,98031.11
2022-11-15T06:10:56.321Z,98033.09
2022-11-15T06:14:37.981Z,98033.46
2022-11-15T06:18:39.381Z,98036.34
2022-11-15T06:22:38.802Z,98036.55
2022-11-15T06:26:19.212Z,98032.61
2022-11-15T06:30:00.828Z,98033.09
2022-11-15T06:33:42.436Z,98034.67
2022-11-15T06:37:23.891Z,98034.39
2022-11-15T06:41:24.273Z,98031.46
2022-11-15T06:45:06.115Z,98034.54
2022-11-15T06:48:47.149Z,98031.92
2022-11-15T06:52:33.424Z,98033.27
2022-11-15T06:56:14.748Z,98030.23
2022-11-15T06:59:56.136Z,98030.89
2022-11-15T07:03:38.920Z,98031.29
2022-11-15T07:07:20.220Z,98035.57
2022-11-15T07:11:04.214Z,98037.19
2022-11-15T07:15:06.325Z,98033.21
2022-11-15T07:19:05.868Z,98036.20
2022-11-15T07:22:46.360Z,98035.66
2022-11-15T07:26:27.818Z,98028.87
2022-11-15T07:30:09.905Z,98022.61
2022-11-15T07:33:50.953Z,98020.20
2022-11-15T07:37:56.265Z,98022.50
2022-11-15T07:41:36.655Z,98020.96
2022-11-15T07:45:18.015Z,98021.95
2022-11-15T07:49:18.135Z,98026.73
2022-11-15T07:53:00.741Z,98029.46
2022-11-15T07:56:42.489Z,98029.39
2022-11-15T08:00:42.602Z,98026.44
2022-11-15T08:04:23.153Z,98028.57
2022-11-15T08:08:04.763Z,98028.27
2022-11-15T08:12:05.125Z,98024.48
2022-11-15T08:15:46.276Z,98021.82
2022-11-15T08:19:46.779Z,98013.62
2022-11-15T08:23:27.567Z,98013.42
2022-11-15T08:27:18.396Z,98002.19
2022-11-15T08:30:59.921Z,98001.91
2022-11-15T08:35:00.021Z,97996.25
2022-11-15T08:38:40.617Z,97993.63
2022-11-15T08:42:21.583Z,97995.09
2022-11-15T08:46:02.956Z,97994.31
2022-11-15T08:50:03.440Z,97992.95
2022-11-15T08:54:02.850Z,97994.96
2022-11-15T08:57:43.174Z,97994.70
2022-11-15T09:01:43.302Z,97990.49
2022-11-15T09:05:23.813Z,97992.98
2022-11-15T09:09:05.211Z,97992.75
2022-11-15T09:12:49.426Z,97990.42
2022-11-15T09:16:49.673Z,97988.06
2022-11-15T09:20:30.180Z,97985.23
2022-11-15T09:24:11.622Z,97980.96
2022-11-15T09:27:53.021Z,97974.30
2022-11-15T09:31:34.455Z,97974.27
2022-11-15T09:35:34.511Z,97972.20
2022-11-15T09:39:15.221Z,97970.64
2022-11-15T09:43:37.432Z,97964.64
2022-11-15T09:47:36.791Z,97957.08
2022-11-15T09:51:47.868Z,97958.33
2022-11-15T09:55:55.286Z,97947.52
2022-11-15T09:59:56.591Z,97947.83
2022-11-15T10:03:51.412Z,97940.85
2022-11-15T10:07:22.314Z,97932.85
2022-11-15T10:11:15.726Z,97924.53
2022-11-15T10:15:14.692Z,97912.41
2022-11-15T10:18:58.939Z,97911.85
2022-11-15T10:22:29.902Z,97904.97
2022-11-15T10:26:17.926Z,97905.61
2022-11-15T10:29:47.401Z,97902.96
2022-11-15T10:33:38.607Z,97892.34
2022-11-15T10:37:31.956Z,97890.86
2022-11-15T10:41:12.502Z,97887.63
2022-11-15T10:44:53.020Z,97879.66
2022-11-15T10:48:14.567Z,97874.73
2022-11-15T10:52:20.210Z,97871.23
2022-11-15T10:55:51.574Z,97867.90
2022-11-15T10:59:39.579Z,97863.26
2022-11-15T11:03:09.943Z,97861.76
2022-11-15T11:07:00.583Z,97855.76
2022-11-15T11:11:00.152Z,97853.45
2022-11-15T11:14:32.485Z,97847.42
2022-11-15T11:18:39.846Z,97846.63
2022-11-15T11:22:17.081Z,97843.35
2022-11-15T11:26:20.219Z,97843.59
2022-11-15T11:30:13.544Z,97839.05
2022-11-15T11:34:09.200Z,97826.13
2022-11-15T11:37:35.031Z,97825.47
2022-11-15T11:41:30.083Z,97823.45
2022-11-15T11:45:24.146Z,97820.84
2022-11-15T11:48:52.724Z,97821.33
2022-11-15T11:52:28.063Z,97819.05
2022-11-15T11:56:14.859Z,97815.25
2022-11-15T12:00:20.945Z,97807.86
2022-11-15T12:03:52.056Z,97806.17
2022-11-15T12:07:40.843Z,97800.73
2022-11-15T12:11:28.691Z,97793.85
2022-11-15T12:14:56.502Z,97787.59
2022-11-15T12:18:53.823Z,97789.35
2022-11-15T12:22:44.564Z,97787.77
2022-11-15T12:26:32.110Z,97783.63
2022-11-15T12:29:57.794Z,97779.83
2022-11-15T12:33:32.749Z,97781.15
2022-11-15T12:37:38.193Z,97778.73
2022-11-15T12:41:20.021Z,97768.17
2022-11-15T12:44:41.114Z,97766.27
2022-11-15T12:48:38.095Z,97763.40
2022-11-15T12:51:59.417Z,97765.60
2022-11-15T12:56:08.432Z,97761.33
2022-11-15T12:59:48.459Z,97755.94
2022-11-15T13:03:19.803Z,97746.07
2022-11-15T13:06:49.573Z,97736.27
2022-11-15T13:10:33.584Z,97734.04
2022-11-15T13:14:37.846Z,97733.98
2022-11-15T13:18:01.003Z,97735.80
2022-11-15T13:22:09.341Z,97736.77
2022-11-15T13:25:40.459Z,97736.55
2022-11-15T13:29:21.273Z,97733.76
2022-11-15T13:33:19.760Z,97727.49
2022-11-15T13:37:01.365Z,97726.34
2022-11-15T13:40:41.999Z,97731.14
2022-11-15T13:44:05.152Z,97726.38
2022-11-15T13:47:40.897Z,97725.08
2022-11-15T13:51:28.440Z,97713.61
2022-11-15T13:55:22.277Z,97714.46
2022-11-15T13:58:43.781Z,97713.90
2022-11-15T14:02:40.183Z,97704.89
2022-11-15T14:06:11.481Z,97704.22
2022-11-15T14:09:57.883Z,97700.77
2022-11-15T14:13:30.629Z,97696.14
2022-11-15T14:17:00.184Z,97697.34
2022-11-15T14:20:37.098Z,97696.70
2022-11-15T14:24:20.775Z,97700.11
2022-11-15T14:28:17.183Z,97694.34
2022-11-15T14:32:19.534Z,97687.75
2022-11-15T14:35:40.782Z,97682.33
2022-11-15T14:39:19.176Z,97676.52
2022-11-15T14:42:56.562Z,97679.68
2022-11-15T14:46:34.170Z,97679.77
2022-11-15T14:50:32.183Z,97674.58
2022-11-15T14:54:13.047Z,97670.77
2022-11-15T14:57:34.790Z,97666.77
2022-11-15T15:01:32.312Z,97660.84
2022-11-15T15:05:18.748Z,97652.72
2022-11-15T15:08:41.353Z,97646.26
2022-11-15T15:12:23.499Z,97644.43
2022-11-15T15:15:55.892Z,97642.06
2022-11-15T15:19:33.329Z,97643.41
2022-11-15T15:23:21.051Z,97637.64
2022-11-15T15:27:07.563Z,97636.07
2022-11-15T15:30:30.659Z,97631.88
2022-11-15T15:34:08.034Z,97633.34
2022-11-15T15:37:46.100Z,97628.83
2022-11-15T15:41:22.249Z,97626.49
2022-11-15T15:44:59.435Z,97624.74
2022-11-15T15:48:55.900Z,97623.25
2022-11-15T15:52:18.362Z,97623.34
2022-11-15T15:56:13.806Z,97618.77
2022-11-15T15:59:54.278Z,97611.30
2022-11-15T16:03:34.392Z,97612.10
2022-11-15T16:07:00.517Z,97608.81
2022-11-15T16:10:35.563Z,97608.54
2022-11-15T16:14:29.858Z,97607.46
2022-11-15T16:17:55.955Z,97605.05
2022-11-15T16:21:29.205Z,97608.44
2022-11-15T16:25:06.680Z,97607.80
2022-11-15T16:29:03.080Z,97609.04
2022-11-15T16:32:25.217Z,97606.83
2022-11-15T16:36:02.627Z,97613.98
2022-11-15T16:39:39.472Z,97610.27
2022-11-15T16:43:36.179Z,97608.25
2022-11-15T16:46:57.346Z,97606.05
2022-11-15T16:50:41.709Z,97605.23
2022-11-15T16:54:13.390Z,97596.95
2022-11-15T16:57:50.819Z,97593.34
2022-11-15T17:01:33.840Z,97590.19
2022-11-15T17:05:10.366Z,97588.63
2022-11-15T17:08:43.419Z,97583.30
2022-11-15T17:12:39.995Z,97575.92
2022-11-15T17:16:11.081Z,97570.20
2022-11-15T17:19:38.801Z,97570.73
2022-11-15T17:23:17.528Z,97567.28
2022-11-15T17:27:13.056Z,97568.08
2022-11-15T17:30:53.719Z,97567.90
2022-11-15T17:34:15.329Z,97565.00
2022-11-15T17:37:53.448Z,97563.85
2022-11-15T17:41:50.156Z,97566.59
2022-11-15T17:45:30.289Z,97564.27
2022-11-15T17:49:10.859Z,97558.59
2022-11-15T17:52:32.192Z,97553.55
2022-11-15T17:56:32.559Z,97553.05
2022-11-15T17:59:54.089Z,97552.13
2022-11-15T18:03:34.997Z,97549.23
2022-11-15T18:07:28.433Z,97544.06
2022-11-15T18:10:49.888Z,97531.58
2022-11-15T18:14:27.553Z,97525.48
2022-11-15T18:18:23.957Z,97523.45
2022-11-15T18:22:06.577Z,97519.70
2022-11-15T18:25:27.884Z,97515.61
2022-11-15T18:29:05.534Z,97510.60
2022-11-15T18:32:43.195Z,97507.14
2022-11-15T18:36:24.036Z,97505.93
2022-11-15T18:39:58.625Z,97503.96
2022-11-15T18:43:37.678Z,97500.01
2022-11-15T18:47:14.884Z,97505.55
2022-11-15T18:50:54.098Z,97507.02
2022-11-15T18:54:31.394Z,97505.63
2022-11-15T18:58:29.670Z,97499.28
2022-11-15T19:01:52.265Z,97507.13
2022-11-15T19:05:28.946Z,97506.36
2022-11-15T19:09:31.956Z,97505.17
2022-11-15T19:12:54.725Z,97502.41
2022-11-15T19:16:33.475Z,97502.34
2022-11-15T19:20:27.856Z,97502.36
2022-11-15T19:24:09.915Z,97496.17
2022-11-15T19:27:34.216Z,97491.55
2022-11-15T19:31:29.568Z,97494.32
2022-11-15T19:35:10.025Z,97487.92
2022-11-15T19:38:50.514Z,97482.40
2022-11-15T19:42:12.068Z,97484.75
2022-11-15T19:46:01.973Z,97487.15
2022-11-15T19:49:28.290Z,97486.61
2022-11-15T19:53:24.885Z,97480.57
2022-11-15T19:57:07.160Z,97475.89
2022-11-15T20:00:28.985Z,97472.47
2022-11-15T20:04:07.971Z,97471.14
2022-11-15T20:08:02.946Z,97466.25
2022-11-15T20:11:24.879Z,97461.37
2022-11-15T20:15:01.835Z,97455.40
2022-11-15T20:18:41.512Z,97454.88
2022-11-15T20:22:19.521Z,97454.90
2022-11-15T20:26:15.291Z,97448.20
2022-11-15T20:29:37.055Z,97450.15
2022-11-15T20:33:15.007Z,97447.63
2022-11-15T20:37:10.942Z,97447.45
2022-11-15T20:40:32.928Z,97447.41
2022-11-15T20:44:29.037Z,97450.30
2022-11-15T20:47:50.490Z,97454.67
2022-11-15T20:51:28.025Z,97449.11
2022-11-15T20:55:06.095Z,97441.07
2022-11-15T20:58:45.742Z,97441.54
2022-11-15T21:02:39.967Z,97440.65
2022-11-15T21:06:01.320Z,97439.09
2022-11-15T21:09:57.703Z,97432.34
2022-11-15T21:13:21.490Z,97422.30
2022-11-15T21:16:57.654Z,97423.45
2022-11-15T21:20:35.120Z,97424.71
2022-11-15T21:24:31.856Z,97419.75
2022-11-15T21:27:53.473Z,97417.42
2022-11-15T21:31:51.214Z,97403.68
2022-11-15T21:35:15.749Z,97404.06
2022-11-15T21:38:50.241Z,97402.28
2022-11-15T21:42:27.960Z,97399.91
2022-11-15T21:46:06.992Z,97400.14
2022-11-15T21:49:43.318Z,97397.52
2022-11-15T21:53:21.377Z,97394.33
2022-11-15T21:56:58.709Z,97391.19
2022-11-15T22:00:55.219Z,97389.95
2022-11-15T22:04:17.248Z,97385.39
2022-11-15T22:07:55.022Z,97382.64
2022-11-15T22:11:51.651Z,97375.37
2022-11-15T22:15:13.113Z,97366.20
2022-11-15T22:19:09.777Z,97360.09
2022-11-15T22:22:31.653Z,97352.73
2022-11-15T22:26:18.362Z,97343.61
2022-11-15T22:29:46.892Z,97336.02
2022-11-15T22:33:27.728Z,97339.72
2022-11-15T22:41:03.349Z,97333.77
2022-11-15T22:44:25.217Z,97334.13
2022-11-15T22:48:03.300Z,97330.56
2022-11-15T22:51:40.773Z,97327.75
2022-11-15T22:55:39.623Z,97327.34
2022-11-15T22:59:01.541Z,97323.84
2022-11-15T23:02:39.264Z,97315.64
2022-11-15T23:06:35.703Z,97314.92
2022-11-15T23:10:35.317Z,97308.00
2022-11-15T23:14:15.792Z,97304.17
2022-11-15T23:17:38.313Z,97303.27
2022-11-15T23:21:55.558Z,97301.70
2022-11-15T23:25:17.093Z,97294.32
2022-11-15T23:28:54.627Z,97295.94
2022-11-15T23:32:51.221Z,97289.40
2022-11-15T23:36:13.664Z,97286.36
2022-11-15T23:39:51.443Z,97281.27
2022-11-15T23:43:28.908Z,97279.15
2022-11-15T23:47:07.054Z,97278.28
2022-11-15T23:50:48.368Z,97277.10
2022-11-15T23:54:22.058Z,97268.42
2022-11-15T23:57:59.799Z,97257.25
